VTDKP VOBL-VOHB
Flight info
| Callsign | VTDKP |
|---|---|
| Flight time | 1h 13m |
| Altitude | 12500 |
| Route | DCT |
| Aircraft | DA42/L-SBDGRY/S |
Departure
| Time | 2026-04-26 15:27 |
|---|---|
| Airport | Kempegowda International Airport Bengaluru (VOBL) |
Arrival
| Time | 2026-04-26 16:40 |
|---|---|
| Airport | Hubballi Airport (VOHB) |
| Time | Latitude | Longitude | Altitude | Speed | Heading |
|---|---|---|---|---|---|
| 2026-04-26 15:18 | 13.20371 | 77.69458 | 2963 ft | 0 kts | 0° |
| 2026-04-26 15:21 | 13.20374 | 77.69456 | 2963 ft | 2 kts | 310° |
| 2026-04-26 15:22 | 13.20359 | 77.69454 | 2963 ft | 3 kts | 166° |
| 2026-04-26 15:22 | 13.20344 | 77.69457 | 2960 ft | 0 kts | 179° |
| 2026-04-26 15:23 | 13.20327 | 77.69457 | 2963 ft | 6 kts | 181° |
| 2026-04-26 15:23 | 13.20291 | 77.69443 | 2963 ft | 6 kts | 272° |
| 2026-04-26 15:24 | 13.20293 | 77.69394 | 2963 ft | 7 kts | 270° |
| 2026-04-26 15:24 | 13.20316 | 77.69339 | 2963 ft | 11 kts | 338° |
| 2026-04-26 15:24 | 13.20390 | 77.69337 | 2963 ft | 11 kts | 1° |
| 2026-04-26 15:24 | 13.20470 | 77.69338 | 2959 ft | 12 kts | 360° |
| 2026-04-26 15:25 | 13.20539 | 77.69297 | 2959 ft | 13 kts | 277° |
| 2026-04-26 15:25 | 13.20539 | 77.69238 | 2962 ft | 12 kts | 277° |
| 2026-04-26 15:25 | 13.20591 | 77.69209 | 2963 ft | 0 kts | 3° |
| 2026-04-26 15:25 | 13.20602 | 77.69210 | 2955 ft | 8 kts | 2° |
| 2026-04-26 15:26 | 13.20660 | 77.69211 | 2956 ft | 8 kts | 359° |
| 2026-04-26 15:26 | 13.20707 | 77.69227 | 2963 ft | 7 kts | 71° |
| 2026-04-26 15:26 | 13.20710 | 77.69334 | 2963 ft | 33 kts | 90° |
| 2026-04-26 15:26 | 13.20706 | 77.69762 | 2964 ft | 84 kts | 91° |
| 2026-04-26 15:27 | 13.20726 | 77.70426 | 3135 ft | 95 kts | 89° |
| 2026-04-26 15:27 | 13.20778 | 77.71105 | 3486 ft | 97 kts | 92° |
| 2026-04-26 15:27 | 13.20829 | 77.71815 | 3775 ft | 103 kts | 92° |
| 2026-04-26 15:27 | 13.20898 | 77.72575 | 4031 ft | 110 kts | 91° |
| 2026-04-26 15:28 | 13.20979 | 77.73376 | 4295 ft | 115 kts | 91° |
| 2026-04-26 15:28 | 13.21053 | 77.74201 | 4563 ft | 117 kts | 90° |
| 2026-04-26 15:28 | 13.21117 | 77.75031 | 4819 ft | 120 kts | 91° |
| 2026-04-26 15:28 | 13.21188 | 77.75898 | 5078 ft | 125 kts | 85° |
| 2026-04-26 15:29 | 13.21686 | 77.76663 | 5323 ft | 140 kts | 39° |
| 2026-04-26 15:29 | 13.22655 | 77.76869 | 5591 ft | 150 kts | 353° |
| 2026-04-26 15:29 | 13.23898 | 77.75324 | 6152 ft | 151 kts | 274° |
| 2026-04-26 15:30 | 13.23971 | 77.73172 | 6734 ft | 149 kts | 270° |
| 2026-04-26 15:30 | 13.23979 | 77.72138 | 7064 ft | 145 kts | 270° |
| 2026-04-26 15:30 | 13.23973 | 77.71118 | 7408 ft | 141 kts | 270° |
| 2026-04-26 15:31 | 13.23961 | 77.70120 | 7755 ft | 139 kts | 270° |
| 2026-04-26 15:31 | 13.23896 | 77.68166 | 8461 ft | 136 kts | 270° |
| 2026-04-26 15:31 | 13.23847 | 77.67204 | 8819 ft | 135 kts | 270° |
| 2026-04-26 15:32 | 13.24075 | 77.65685 | 9426 ft | 126 kts | 306° |
| 2026-04-26 15:32 | 13.24753 | 77.64755 | 9919 ft | 121 kts | 316° |
| 2026-04-26 15:32 | 13.25295 | 77.64096 | 10256 ft | 120 kts | 316° |
| 2026-04-26 15:33 | 13.25837 | 77.63447 | 10588 ft | 119 kts | 316° |
| 2026-04-26 15:33 | 13.26376 | 77.62802 | 10940 ft | 119 kts | 316° |
| 2026-04-26 15:33 | 13.26913 | 77.62162 | 11286 ft | 118 kts | 316° |
| 2026-04-26 15:33 | 13.27446 | 77.61526 | 11638 ft | 117 kts | 316° |
| 2026-04-26 15:34 | 13.27972 | 77.60898 | 11998 ft | 116 kts | 316° |
| 2026-04-26 15:34 | 13.28494 | 77.60274 | 12357 ft | 114 kts | 316° |
| 2026-04-26 15:34 | 13.29033 | 77.59636 | 12492 ft | 130 kts | 316° |
| 2026-04-26 15:34 | 13.29661 | 77.58895 | 12500 ft | 145 kts | 315° |
| 2026-04-26 15:35 | 13.30344 | 77.58081 | 12502 ft | 155 kts | 314° |
| 2026-04-26 15:35 | 13.31063 | 77.57220 | 12503 ft | 162 kts | 314° |
| 2026-04-26 15:35 | 13.31808 | 77.56332 | 12499 ft | 166 kts | 314° |
| 2026-04-26 15:35 | 13.32564 | 77.55424 | 12500 ft | 169 kts | 313° |
| 2026-04-26 15:36 | 13.33330 | 77.54502 | 12496 ft | 170 kts | 313° |
| 2026-04-26 15:36 | 13.34104 | 77.53576 | 12495 ft | 171 kts | 313° |
| 2026-04-26 15:36 | 13.34882 | 77.52645 | 12495 ft | 172 kts | 313° |
| 2026-04-26 15:36 | 13.35653 | 77.51724 | 12502 ft | 173 kts | 313° |
| 2026-04-26 15:37 | 13.36435 | 77.50789 | 12479 ft | 173 kts | 313° |
| 2026-04-26 15:37 | 13.37219 | 77.49852 | 12480 ft | 173 kts | 313° |
| 2026-04-26 15:37 | 13.38003 | 77.48914 | 12480 ft | 173 kts | 313° |
| 2026-04-26 15:37 | 13.38788 | 77.47976 | 12481 ft | 173 kts | 313° |
| 2026-04-26 15:38 | 13.39576 | 77.47033 | 12480 ft | 174 kts | 313° |
| 2026-04-26 15:38 | 13.40364 | 77.46091 | 12477 ft | 174 kts | 313° |
| 2026-04-26 15:38 | 13.41130 | 77.45174 | 12480 ft | 174 kts | 313° |
| 2026-04-26 15:38 | 13.41780 | 77.44397 | 12481 ft | 174 kts | 313° |
| 2026-04-26 15:39 | 13.42568 | 77.43454 | 12480 ft | 174 kts | 313° |
| 2026-04-26 15:39 | 13.43356 | 77.42511 | 12481 ft | 174 kts | 313° |
| 2026-04-26 15:39 | 13.44147 | 77.41564 | 12478 ft | 175 kts | 313° |
| 2026-04-26 15:39 | 13.44671 | 77.40937 | 12478 ft | 175 kts | 313° |
| 2026-04-26 15:40 | 13.45728 | 77.39672 | 12477 ft | 174 kts | 313° |
| 2026-04-26 15:40 | 13.46517 | 77.38726 | 12469 ft | 174 kts | 313° |
| 2026-04-26 15:40 | 13.47297 | 77.37793 | 12469 ft | 175 kts | 313° |
| 2026-04-26 15:40 | 13.48086 | 77.36847 | 12460 ft | 174 kts | 313° |
| 2026-04-26 15:41 | 13.48874 | 77.35904 | 12460 ft | 174 kts | 313° |
| 2026-04-26 15:41 | 13.49662 | 77.34960 | 12460 ft | 174 kts | 313° |
| 2026-04-26 15:41 | 13.50448 | 77.34019 | 12460 ft | 173 kts | 313° |
| 2026-04-26 15:41 | 13.51234 | 77.33078 | 12461 ft | 174 kts | 313° |
| 2026-04-26 15:42 | 13.52020 | 77.32136 | 12460 ft | 174 kts | 314° |
| 2026-04-26 15:42 | 13.52806 | 77.31194 | 12460 ft | 174 kts | 313° |
| 2026-04-26 15:42 | 13.53585 | 77.30261 | 12453 ft | 175 kts | 313° |
| 2026-04-26 15:42 | 13.54377 | 77.29311 | 12453 ft | 176 kts | 313° |
| 2026-04-26 15:43 | 13.55172 | 77.28358 | 12454 ft | 176 kts | 313° |
| 2026-04-26 15:43 | 13.55969 | 77.27403 | 12453 ft | 176 kts | 313° |
| 2026-04-26 15:43 | 13.57570 | 77.25483 | 12453 ft | 177 kts | 313° |
| 2026-04-26 15:44 | 13.58369 | 77.24525 | 12453 ft | 176 kts | 313° |
| 2026-04-26 15:44 | 13.59967 | 77.22609 | 12430 ft | 177 kts | 312° |
| 2026-04-26 15:44 | 13.60762 | 77.21655 | 12430 ft | 179 kts | 312° |
| 2026-04-26 15:45 | 13.62388 | 77.19704 | 12430 ft | 181 kts | 312° |
| 2026-04-26 15:45 | 13.63203 | 77.18726 | 12435 ft | 180 kts | 312° |
| 2026-04-26 15:46 | 13.64837 | 77.16764 | 12436 ft | 181 kts | 312° |
| 2026-04-26 15:46 | 13.65655 | 77.15783 | 12436 ft | 181 kts | 312° |
| 2026-04-26 15:46 | 13.66474 | 77.14799 | 12436 ft | 181 kts | 312° |
| 2026-04-26 15:46 | 13.67019 | 77.14146 | 12436 ft | 181 kts | 312° |
| 2026-04-26 15:47 | 13.68106 | 77.12840 | 12434 ft | 182 kts | 312° |
| 2026-04-26 15:47 | 13.69750 | 77.10866 | 12434 ft | 182 kts | 312° |
| 2026-04-26 15:47 | 13.70574 | 77.09876 | 12434 ft | 182 kts | 312° |
| 2026-04-26 15:48 | 13.71396 | 77.08888 | 12436 ft | 182 kts | 312° |
| 2026-04-26 15:48 | 13.72218 | 77.07900 | 12431 ft | 182 kts | 312° |
| 2026-04-26 15:48 | 13.73042 | 77.06911 | 12425 ft | 182 kts | 312° |
| 2026-04-26 15:48 | 13.73862 | 77.05925 | 12426 ft | 182 kts | 312° |
| 2026-04-26 15:49 | 13.74674 | 77.04949 | 12426 ft | 182 kts | 312° |
| 2026-04-26 15:49 | 13.75496 | 77.03961 | 12426 ft | 182 kts | 312° |
| 2026-04-26 15:49 | 13.76317 | 77.02974 | 12425 ft | 182 kts | 312° |
| 2026-04-26 15:49 | 13.77139 | 77.01985 | 12426 ft | 182 kts | 312° |
| 2026-04-26 15:50 | 13.77959 | 77.00999 | 12426 ft | 182 kts | 312° |
| 2026-04-26 15:50 | 13.78781 | 77.00011 | 12425 ft | 182 kts | 312° |
| 2026-04-26 15:50 | 13.79602 | 76.99024 | 12426 ft | 182 kts | 312° |
| 2026-04-26 15:50 | 13.80423 | 76.98036 | 12426 ft | 182 kts | 312° |
| 2026-04-26 15:51 | 13.81233 | 76.97062 | 12425 ft | 182 kts | 312° |
| 2026-04-26 15:51 | 13.82053 | 76.96075 | 12425 ft | 181 kts | 312° |
| 2026-04-26 15:51 | 13.82873 | 76.95087 | 12425 ft | 181 kts | 312° |
| 2026-04-26 15:51 | 13.83692 | 76.94103 | 12426 ft | 181 kts | 312° |
| 2026-04-26 15:52 | 13.84511 | 76.93117 | 12425 ft | 181 kts | 312° |
| 2026-04-26 15:52 | 13.85329 | 76.92131 | 12425 ft | 181 kts | 312° |
| 2026-04-26 15:52 | 13.86150 | 76.91144 | 12420 ft | 181 kts | 311° |
| 2026-04-26 15:52 | 13.86693 | 76.90490 | 12424 ft | 182 kts | 311° |
| 2026-04-26 15:53 | 13.87795 | 76.89163 | 12425 ft | 183 kts | 311° |
| 2026-04-26 15:53 | 13.88609 | 76.88182 | 12425 ft | 183 kts | 311° |
| 2026-04-26 15:53 | 13.89437 | 76.87185 | 12426 ft | 183 kts | 311° |
| 2026-04-26 15:53 | 13.90265 | 76.86186 | 12440 ft | 185 kts | 314° |
| 2026-04-26 15:54 | 13.91110 | 76.85169 | 12438 ft | 189 kts | 314° |
| 2026-04-26 15:54 | 13.91969 | 76.84136 | 12439 ft | 191 kts | 314° |
| 2026-04-26 15:54 | 13.92835 | 76.83093 | 12439 ft | 192 kts | 314° |
| 2026-04-26 15:54 | 13.93706 | 76.82042 | 12440 ft | 194 kts | 314° |
| 2026-04-26 15:55 | 13.94582 | 76.80986 | 12440 ft | 194 kts | 314° |
| 2026-04-26 15:55 | 13.95449 | 76.79940 | 12439 ft | 195 kts | 314° |
| 2026-04-26 15:55 | 13.96328 | 76.78881 | 12442 ft | 195 kts | 314° |
| 2026-04-26 15:55 | 13.97207 | 76.77821 | 12442 ft | 195 kts | 314° |
| 2026-04-26 15:56 | 13.98086 | 76.76761 | 12444 ft | 195 kts | 314° |
| 2026-04-26 15:56 | 13.98963 | 76.75702 | 12444 ft | 194 kts | 314° |
| 2026-04-26 15:56 | 13.99841 | 76.74643 | 12439 ft | 194 kts | 314° |
| 2026-04-26 15:56 | 14.00718 | 76.73585 | 12439 ft | 194 kts | 314° |
| 2026-04-26 15:57 | 14.01584 | 76.72540 | 12436 ft | 194 kts | 314° |
| 2026-04-26 15:57 | 14.02462 | 76.71481 | 12436 ft | 195 kts | 314° |
| 2026-04-26 15:57 | 14.03343 | 76.70417 | 12436 ft | 195 kts | 314° |
| 2026-04-26 15:57 | 14.03926 | 76.69714 | 12436 ft | 195 kts | 314° |
| 2026-04-26 15:58 | 14.05106 | 76.68290 | 12439 ft | 195 kts | 314° |
| 2026-04-26 15:58 | 14.05987 | 76.67225 | 12439 ft | 195 kts | 314° |
| 2026-04-26 15:58 | 14.06869 | 76.66161 | 12438 ft | 195 kts | 314° |
| 2026-04-26 15:58 | 14.07751 | 76.65095 | 12438 ft | 195 kts | 314° |
| 2026-04-26 15:59 | 14.08618 | 76.64048 | 12449 ft | 195 kts | 314° |
| 2026-04-26 15:59 | 14.09495 | 76.62988 | 12449 ft | 194 kts | 314° |
| 2026-04-26 15:59 | 14.10372 | 76.61929 | 12449 ft | 194 kts | 314° |
| 2026-04-26 15:59 | 14.11250 | 76.60868 | 12450 ft | 194 kts | 314° |
| 2026-04-26 16:00 | 14.12126 | 76.59809 | 12449 ft | 195 kts | 314° |
| 2026-04-26 16:00 | 14.13005 | 76.58747 | 12447 ft | 195 kts | 314° |
| 2026-04-26 16:00 | 14.13885 | 76.57683 | 12448 ft | 195 kts | 314° |
| 2026-04-26 16:00 | 14.14768 | 76.56615 | 12447 ft | 196 kts | 314° |
| 2026-04-26 16:01 | 14.15638 | 76.55563 | 12447 ft | 196 kts | 314° |
| 2026-04-26 16:01 | 14.16520 | 76.54497 | 12447 ft | 195 kts | 314° |
| 2026-04-26 16:01 | 14.17400 | 76.53432 | 12447 ft | 195 kts | 314° |
| 2026-04-26 16:01 | 14.18281 | 76.52367 | 12448 ft | 195 kts | 314° |
| 2026-04-26 16:02 | 14.19160 | 76.51303 | 12444 ft | 195 kts | 313° |
| 2026-04-26 16:02 | 14.20036 | 76.50243 | 12460 ft | 194 kts | 314° |
| 2026-04-26 16:02 | 14.20913 | 76.49182 | 12456 ft | 194 kts | 314° |
| 2026-04-26 16:02 | 14.21494 | 76.48479 | 12456 ft | 194 kts | 314° |
| 2026-04-26 16:03 | 14.22656 | 76.47073 | 12461 ft | 195 kts | 314° |
| 2026-04-26 16:03 | 14.23532 | 76.46012 | 12460 ft | 195 kts | 314° |
| 2026-04-26 16:03 | 14.24409 | 76.44950 | 12460 ft | 195 kts | 314° |
| 2026-04-26 16:03 | 14.25289 | 76.43885 | 12461 ft | 195 kts | 314° |
| 2026-04-26 16:04 | 14.26168 | 76.42820 | 12452 ft | 195 kts | 314° |
| 2026-04-26 16:04 | 14.27047 | 76.41756 | 12451 ft | 195 kts | 314° |
| 2026-04-26 16:04 | 14.27924 | 76.40693 | 12451 ft | 194 kts | 314° |
| 2026-04-26 16:04 | 14.28798 | 76.39633 | 12451 ft | 194 kts | 314° |
| 2026-04-26 16:05 | 14.29661 | 76.38588 | 12453 ft | 194 kts | 314° |
| 2026-04-26 16:05 | 14.30538 | 76.37526 | 12453 ft | 194 kts | 314° |
| 2026-04-26 16:05 | 14.31413 | 76.36466 | 12454 ft | 194 kts | 314° |
| 2026-04-26 16:05 | 14.32288 | 76.35405 | 12456 ft | 194 kts | 314° |
| 2026-04-26 16:06 | 14.33164 | 76.34343 | 12457 ft | 194 kts | 314° |
| 2026-04-26 16:06 | 14.34040 | 76.33280 | 12457 ft | 194 kts | 314° |
| 2026-04-26 16:06 | 14.34916 | 76.32218 | 12457 ft | 194 kts | 314° |
| 2026-04-26 16:06 | 14.35791 | 76.31156 | 12457 ft | 194 kts | 314° |
| 2026-04-26 16:07 | 14.36667 | 76.30094 | 12460 ft | 194 kts | 314° |
| 2026-04-26 16:07 | 14.37533 | 76.29044 | 12459 ft | 194 kts | 314° |
| 2026-04-26 16:07 | 14.38408 | 76.27982 | 12460 ft | 194 kts | 314° |
| 2026-04-26 16:07 | 14.39284 | 76.26919 | 12457 ft | 194 kts | 313° |
| 2026-04-26 16:08 | 14.40160 | 76.25857 | 12455 ft | 194 kts | 313° |
| 2026-04-26 16:08 | 14.40752 | 76.25138 | 12455 ft | 195 kts | 313° |
| 2026-04-26 16:08 | 14.41911 | 76.23730 | 12454 ft | 194 kts | 314° |
| 2026-04-26 16:08 | 14.42788 | 76.22666 | 12454 ft | 194 kts | 314° |
| 2026-04-26 16:09 | 14.43662 | 76.21605 | 12456 ft | 194 kts | 314° |
| 2026-04-26 16:09 | 14.44536 | 76.20543 | 12454 ft | 194 kts | 314° |
| 2026-04-26 16:09 | 14.45410 | 76.19481 | 12453 ft | 194 kts | 314° |
| 2026-04-26 16:09 | 14.46283 | 76.18421 | 12453 ft | 194 kts | 314° |
| 2026-04-26 16:10 | 14.47145 | 76.17374 | 12454 ft | 194 kts | 314° |
| 2026-04-26 16:10 | 14.48019 | 76.16313 | 12454 ft | 194 kts | 314° |
| 2026-04-26 16:10 | 14.48894 | 76.15249 | 12454 ft | 195 kts | 314° |
| 2026-04-26 16:10 | 14.49772 | 76.14182 | 12455 ft | 195 kts | 314° |
| 2026-04-26 16:11 | 14.50648 | 76.13116 | 12454 ft | 195 kts | 314° |
| 2026-04-26 16:11 | 14.51523 | 76.12053 | 12454 ft | 194 kts | 314° |
| 2026-04-26 16:11 | 14.52399 | 76.10988 | 12443 ft | 194 kts | 314° |
| 2026-04-26 16:11 | 14.53270 | 76.09929 | 12439 ft | 193 kts | 314° |
| 2026-04-26 16:12 | 14.54138 | 76.08873 | 12440 ft | 193 kts | 314° |
| 2026-04-26 16:12 | 14.54993 | 76.07833 | 12440 ft | 193 kts | 314° |
| 2026-04-26 16:12 | 14.56727 | 76.05724 | 12440 ft | 193 kts | 314° |
| 2026-04-26 16:13 | 14.57594 | 76.04669 | 12440 ft | 193 kts | 314° |
| 2026-04-26 16:13 | 14.58460 | 76.03615 | 12440 ft | 193 kts | 314° |
| 2026-04-26 16:13 | 14.59328 | 76.02558 | 12441 ft | 193 kts | 314° |
| 2026-04-26 16:13 | 14.60194 | 76.01504 | 12440 ft | 193 kts | 314° |
| 2026-04-26 16:14 | 14.61060 | 76.00450 | 12442 ft | 192 kts | 314° |
| 2026-04-26 16:14 | 14.61925 | 75.99397 | 12443 ft | 192 kts | 314° |
| 2026-04-26 16:14 | 14.63641 | 75.97306 | 12444 ft | 192 kts | 314° |
| 2026-04-26 16:15 | 14.64507 | 75.96251 | 12441 ft | 192 kts | 314° |
| 2026-04-26 16:15 | 14.65371 | 75.95199 | 12441 ft | 192 kts | 314° |
| 2026-04-26 16:15 | 14.66235 | 75.94147 | 12441 ft | 192 kts | 314° |
| 2026-04-26 16:16 | 14.67957 | 75.92045 | 12439 ft | 192 kts | 314° |
| 2026-04-26 16:16 | 14.68820 | 75.90992 | 12439 ft | 192 kts | 314° |
| 2026-04-26 16:16 | 14.69683 | 75.89941 | 12441 ft | 192 kts | 314° |
| 2026-04-26 16:16 | 14.70537 | 75.88901 | 12441 ft | 193 kts | 314° |
| 2026-04-26 16:17 | 14.71403 | 75.87845 | 12439 ft | 193 kts | 314° |
| 2026-04-26 16:17 | 14.72271 | 75.86787 | 12438 ft | 194 kts | 314° |
| 2026-04-26 16:17 | 14.73142 | 75.85725 | 12438 ft | 193 kts | 314° |
| 2026-04-26 16:17 | 14.74009 | 75.84667 | 12438 ft | 193 kts | 314° |
| 2026-04-26 16:18 | 14.74876 | 75.83609 | 12440 ft | 193 kts | 314° |
| 2026-04-26 16:18 | 14.76609 | 75.81494 | 12440 ft | 193 kts | 314° |
| 2026-04-26 16:19 | 14.78325 | 75.79399 | 12439 ft | 192 kts | 314° |
| 2026-04-26 16:19 | 14.79188 | 75.78346 | 12438 ft | 192 kts | 314° |
| 2026-04-26 16:19 | 14.80629 | 75.76586 | 12438 ft | 193 kts | 314° |
| 2026-04-26 16:20 | 14.81498 | 75.75525 | 12437 ft | 194 kts | 314° |
| 2026-04-26 16:20 | 14.83535 | 75.73037 | 12437 ft | 194 kts | 314° |
| 2026-04-26 16:20 | 14.84406 | 75.71972 | 12437 ft | 194 kts | 314° |
| 2026-04-26 16:21 | 14.85265 | 75.70922 | 12437 ft | 194 kts | 314° |
| 2026-04-26 16:21 | 14.86135 | 75.69859 | 12437 ft | 194 kts | 314° |
| 2026-04-26 16:21 | 14.87006 | 75.68795 | 12437 ft | 194 kts | 314° |
| 2026-04-26 16:21 | 14.87875 | 75.67733 | 12438 ft | 194 kts | 314° |
| 2026-04-26 16:22 | 14.88744 | 75.66670 | 12438 ft | 194 kts | 314° |
| 2026-04-26 16:22 | 14.89614 | 75.65606 | 12438 ft | 194 kts | 314° |
| 2026-04-26 16:22 | 14.90486 | 75.64539 | 12435 ft | 194 kts | 314° |
| 2026-04-26 16:22 | 14.91358 | 75.63473 | 12437 ft | 194 kts | 314° |
| 2026-04-26 16:23 | 14.92216 | 75.62422 | 12437 ft | 194 kts | 314° |
| 2026-04-26 16:23 | 14.93086 | 75.61358 | 12436 ft | 194 kts | 314° |
| 2026-04-26 16:23 | 14.93954 | 75.60296 | 12437 ft | 193 kts | 314° |
| 2026-04-26 16:23 | 14.94821 | 75.59234 | 12437 ft | 193 kts | 314° |
| 2026-04-26 16:24 | 14.95689 | 75.58172 | 12437 ft | 193 kts | 314° |
| 2026-04-26 16:24 | 14.96556 | 75.57111 | 12438 ft | 193 kts | 314° |
| 2026-04-26 16:24 | 14.97425 | 75.56047 | 12438 ft | 194 kts | 314° |
| 2026-04-26 16:24 | 14.98294 | 75.54983 | 12438 ft | 194 kts | 314° |
| 2026-04-26 16:25 | 14.99164 | 75.53917 | 12437 ft | 194 kts | 314° |
| 2026-04-26 16:25 | 15.00024 | 75.52863 | 12438 ft | 194 kts | 314° |
| 2026-04-26 16:25 | 15.00895 | 75.51796 | 12437 ft | 194 kts | 314° |
| 2026-04-26 16:25 | 15.01767 | 75.50728 | 12437 ft | 194 kts | 314° |
| 2026-04-26 16:26 | 15.02638 | 75.49660 | 12438 ft | 194 kts | 314° |
| 2026-04-26 16:26 | 15.03215 | 75.48953 | 12440 ft | 194 kts | 314° |
| 2026-04-26 16:26 | 15.04383 | 75.47523 | 12364 ft | 194 kts | 314° |
| 2026-04-26 16:26 | 15.05245 | 75.46467 | 12194 ft | 190 kts | 314° |
| 2026-04-26 16:27 | 15.06092 | 75.45428 | 12021 ft | 188 kts | 314° |
| 2026-04-26 16:27 | 15.06929 | 75.44402 | 11852 ft | 186 kts | 314° |
| 2026-04-26 16:27 | 15.07761 | 75.43381 | 11668 ft | 185 kts | 314° |
| 2026-04-26 16:27 | 15.08581 | 75.42375 | 11479 ft | 185 kts | 314° |
| 2026-04-26 16:28 | 15.09412 | 75.41355 | 11292 ft | 185 kts | 314° |
| 2026-04-26 16:28 | 15.10241 | 75.40339 | 11104 ft | 185 kts | 314° |
| 2026-04-26 16:28 | 15.11070 | 75.39321 | 10917 ft | 185 kts | 314° |
| 2026-04-26 16:28 | 15.11899 | 75.38304 | 10729 ft | 184 kts | 314° |
| 2026-04-26 16:29 | 15.12724 | 75.37290 | 10543 ft | 184 kts | 314° |
| 2026-04-26 16:29 | 15.13547 | 75.36280 | 10359 ft | 183 kts | 314° |
| 2026-04-26 16:29 | 15.14367 | 75.35273 | 10177 ft | 183 kts | 314° |
| 2026-04-26 16:29 | 15.15184 | 75.34270 | 9995 ft | 182 kts | 314° |
| 2026-04-26 16:30 | 15.15989 | 75.33282 | 9807 ft | 181 kts | 315° |
| 2026-04-26 16:30 | 15.16796 | 75.32290 | 9610 ft | 180 kts | 315° |
| 2026-04-26 16:30 | 15.17598 | 75.31305 | 9410 ft | 178 kts | 315° |
| 2026-04-26 16:30 | 15.18394 | 75.30327 | 9207 ft | 177 kts | 315° |
| 2026-04-26 16:31 | 15.19185 | 75.29356 | 9020 ft | 176 kts | 314° |
| 2026-04-26 16:31 | 15.19970 | 75.28391 | 8824 ft | 174 kts | 314° |
| 2026-04-26 16:31 | 15.20747 | 75.27435 | 8629 ft | 173 kts | 314° |
| 2026-04-26 16:31 | 15.21508 | 75.26500 | 8437 ft | 171 kts | 314° |
| 2026-04-26 16:32 | 15.22272 | 75.25561 | 8244 ft | 170 kts | 314° |
| 2026-04-26 16:32 | 15.22783 | 75.24933 | 8114 ft | 169 kts | 314° |
| 2026-04-26 16:32 | 15.23781 | 75.23706 | 7863 ft | 167 kts | 314° |
| 2026-04-26 16:32 | 15.24524 | 75.22791 | 7676 ft | 165 kts | 314° |
| 2026-04-26 16:33 | 15.25264 | 75.21882 | 7491 ft | 165 kts | 314° |
| 2026-04-26 16:33 | 15.26000 | 75.20976 | 7303 ft | 164 kts | 314° |
| 2026-04-26 16:33 | 15.26731 | 75.20077 | 7118 ft | 163 kts | 314° |
| 2026-04-26 16:33 | 15.27456 | 75.19184 | 6934 ft | 161 kts | 314° |
| 2026-04-26 16:34 | 15.28168 | 75.18309 | 6753 ft | 160 kts | 314° |
| 2026-04-26 16:34 | 15.28882 | 75.17429 | 6571 ft | 159 kts | 314° |
| 2026-04-26 16:34 | 15.29589 | 75.16558 | 6391 ft | 158 kts | 314° |
| 2026-04-26 16:34 | 15.30293 | 75.15692 | 6202 ft | 157 kts | 314° |
| 2026-04-26 16:35 | 15.30994 | 75.14829 | 6007 ft | 155 kts | 313° |
| 2026-04-26 16:35 | 15.31683 | 75.13980 | 5815 ft | 153 kts | 313° |
| 2026-04-26 16:35 | 15.32360 | 75.13147 | 5622 ft | 149 kts | 314° |
| 2026-04-26 16:35 | 15.32943 | 75.12264 | 5429 ft | 153 kts | 290° |
| 2026-04-26 16:36 | 15.32873 | 75.11184 | 5245 ft | 154 kts | 244° |
| 2026-04-26 16:36 | 15.32109 | 75.10479 | 5059 ft | 151 kts | 200° |
| 2026-04-26 16:36 | 15.31094 | 75.10503 | 4877 ft | 148 kts | 156° |
| 2026-04-26 16:36 | 15.30383 | 75.11227 | 4706 ft | 146 kts | 113° |
| 2026-04-26 16:37 | 15.30329 | 75.12248 | 4511 ft | 144 kts | 68° |
| 2026-04-26 16:37 | 15.30950 | 75.13013 | 4321 ft | 139 kts | 24° |
| 2026-04-26 16:37 | 15.31866 | 75.13220 | 4139 ft | 133 kts | 0° |
| 2026-04-26 16:37 | 15.32476 | 75.13275 | 4010 ft | 132 kts | 358° |
| 2026-04-26 16:38 | 15.33698 | 75.13198 | 3765 ft | 133 kts | 350° |
| 2026-04-26 16:38 | 15.34632 | 75.13108 | 3575 ft | 134 kts | 349° |
| 2026-04-26 16:38 | 15.35493 | 75.12990 | 3400 ft | 117 kts | 344° |
| 2026-04-26 16:38 | 15.36256 | 75.12777 | 3198 ft | 111 kts | 328° |
| 2026-04-26 16:39 | 15.36608 | 75.12154 | 2965 ft | 106 kts | 269° |
| 2026-04-26 16:39 | 15.36486 | 75.11450 | 2885 ft | 86 kts | 262° |
| 2026-04-26 16:39 | 15.36420 | 75.10847 | 2760 ft | 86 kts | 265° |
| 2026-04-26 16:39 | 15.36365 | 75.10250 | 2589 ft | 75 kts | 265° |
| 2026-04-26 16:40 | 15.36296 | 75.09706 | 2331 ft | 84 kts | 257° |
| 2026-04-26 16:40 | 15.36218 | 75.09104 | 2194 ft | 84 kts | 259° |
| 2026-04-26 16:40 | 15.36157 | 75.08622 | 2164 ft | 41 kts | 262° |
| 2026-04-26 16:40 | 15.36146 | 75.08531 | 2161 ft | 6 kts | 261° |
| 2026-04-26 16:41 | 15.36140 | 75.08487 | 2164 ft | 6 kts | 253° |
| 2026-04-26 16:41 | 15.36107 | 75.08468 | 2164 ft | 9 kts | 177° |
| 2026-04-26 16:41 | 15.36007 | 75.08482 | 2162 ft | 15 kts | 174° |
| 2026-04-26 16:41 | 15.35919 | 75.08493 | 2163 ft | 11 kts | 185° |
| 2026-04-26 16:42 | 15.35885 | 75.08452 | 2162 ft | 7 kts | 152° |
| 2026-04-26 16:42 | 15.35849 | 75.08463 | 2165 ft | 5 kts | 172° |
| 2026-04-26 16:42 | 15.35844 | 75.08464 | 2165 ft | 0 kts | 173° |